createdAt,value
2018-09-08T00:00:09.815Z,15.27
2018-09-08T00:02:33.645Z,15.36
2018-09-08T00:04:57.481Z,15.15
2018-09-08T00:07:26.698Z,15.37
2018-09-08T00:09:50.522Z,15.14
2018-09-08T00:12:14.382Z,15.31
2018-09-08T00:14:37.406Z,15.38
2018-09-08T00:17:06.782Z,15.11
2018-09-08T00:19:35.875Z,15.13
2018-09-08T00:22:04.948Z,14.82
2018-09-08T00:24:34.144Z,14.85
2018-09-08T00:26:57.177Z,14.88
2018-09-08T00:29:25.436Z,14.84
2018-09-08T00:31:49.263Z,14.60
2018-09-08T00:34:13.174Z,14.78
2018-09-08T00:36:36.996Z,14.79
2018-09-08T00:39:00.800Z,14.71
2018-09-08T00:41:24.665Z,14.83
2018-09-08T00:43:48.515Z,14.61
2018-09-08T00:46:12.901Z,14.32
2018-09-08T00:48:36.885Z,14.41
2018-09-08T00:51:01.018Z,14.40
2018-09-08T00:53:24.927Z,14.12
2018-09-08T00:55:48.758Z,14.37
2018-09-08T00:58:12.720Z,13.83
2018-09-08T01:00:36.555Z,14.03
2018-09-08T01:03:00.467Z,13.98
2018-09-08T01:05:24.336Z,13.81
2018-09-08T01:07:48.187Z,13.87
2018-09-08T01:10:11.977Z,13.64
2018-09-08T01:12:35.848Z,14.08
2018-09-08T01:15:00.157Z,13.67
2018-09-08T01:17:24.424Z,13.84
2018-09-08T01:19:48.307Z,13.51
2018-09-08T01:22:12.134Z,13.52
2018-09-08T01:24:35.975Z,13.53
2018-09-08T01:26:59.833Z,13.48
2018-09-08T01:29:23.670Z,13.69
2018-09-08T01:31:47.633Z,13.74
2018-09-08T01:34:11.444Z,13.81
2018-09-08T01:36:35.268Z,13.69
2018-09-08T01:38:59.095Z,13.59
2018-09-08T01:41:22.965Z,13.74
2018-09-08T01:43:46.897Z,13.99
2018-09-08T01:46:10.718Z,13.82
2018-09-08T01:48:34.557Z,14.02
2018-09-08T01:50:58.409Z,13.42
2018-09-08T01:53:22.247Z,13.61
2018-09-08T01:55:46.197Z,13.71
2018-09-08T01:58:10.008Z,13.50
2018-09-08T02:00:33.843Z,13.54
2018-09-08T02:02:57.686Z,13.47
2018-09-08T02:05:21.483Z,13.44
2018-09-08T02:07:45.416Z,13.46
2018-09-08T02:10:09.229Z,13.35
2018-09-08T02:12:33.043Z,13.47
2018-09-08T02:14:56.885Z,13.56
2018-09-08T02:17:20.717Z,13.77
2018-09-08T02:19:44.554Z,13.41
2018-09-08T02:22:08.365Z,13.69
2018-09-08T02:24:32.276Z,13.78
2018-09-08T02:26:56.111Z,13.94
2018-09-08T02:29:19.911Z,13.83
2018-09-08T02:31:43.742Z,13.64
2018-09-08T02:34:07.536Z,13.65
2018-09-08T02:36:31.460Z,13.52
2018-09-08T02:38:55.286Z,13.21
2018-09-08T02:41:19.098Z,13.46
2018-09-08T02:43:42.961Z,13.64
2018-09-08T02:46:06.923Z,13.30
2018-09-08T02:48:30.869Z,13.42
2018-09-08T02:50:53.678Z,13.43
2018-09-08T02:53:16.484Z,13.38
2018-09-08T02:55:39.545Z,13.31
2018-09-08T02:58:02.344Z,13.30
2018-09-08T03:00:25.628Z,13.42
2018-09-08T03:02:48.459Z,13.52
2018-09-08T03:05:11.255Z,13.49
2018-09-08T03:07:34.179Z,13.41
2018-09-08T03:09:56.947Z,13.36
2018-09-08T03:12:19.755Z,13.31
2018-09-08T03:14:42.671Z,13.07
2018-09-08T03:17:05.952Z,13.24
2018-09-08T03:19:28.894Z,13.61
2018-09-08T03:21:51.899Z,13.39
2018-09-08T03:24:14.716Z,13.13
2018-09-08T03:26:37.605Z,13.49
2018-09-08T03:29:00.410Z,13.59
2018-09-08T03:31:23.232Z,13.89
2018-09-08T03:33:46.032Z,13.77
2018-09-08T03:36:08.825Z,13.86
2018-09-08T03:38:31.728Z,13.55
2018-09-08T03:40:54.591Z,13.63
2018-09-08T03:43:17.393Z,13.58
2018-09-08T03:45:40.206Z,13.61
2018-09-08T03:48:03.020Z,13.57
2018-09-08T03:50:25.922Z,13.73
2018-09-08T03:52:48.730Z,13.83
2018-09-08T03:55:11.535Z,13.56
2018-09-08T03:57:34.650Z,13.45
2018-09-08T03:59:57.450Z,13.45
2018-09-08T04:02:20.283Z,13.30
2018-09-08T04:04:44.133Z,13.60
2018-09-08T04:07:07.962Z,13.80
2018-09-08T04:09:31.869Z,13.70
2018-09-08T04:11:55.723Z,13.28
2018-09-08T04:14:19.542Z,13.44
2018-09-08T04:16:43.378Z,13.68
2018-09-08T04:19:07.493Z,13.68
2018-09-08T04:21:31.322Z,13.77
2018-09-08T04:23:55.157Z,13.64
2018-09-08T04:26:19.085Z,13.55
2018-09-08T04:28:42.942Z,13.65
2018-09-08T04:31:07.097Z,13.63
2018-09-08T04:33:30.908Z,13.41
2018-09-08T04:35:54.725Z,13.73
2018-09-08T04:38:18.559Z,13.61
2018-09-08T04:40:42.414Z,13.10
2018-09-08T04:43:06.232Z,13.58
2018-09-08T04:45:30.138Z,13.74
2018-09-08T04:47:53.999Z,13.79
2018-09-08T04:50:17.848Z,13.64
2018-09-08T04:52:41.819Z,13.57
2018-09-08T04:55:05.760Z,13.52
2018-09-08T04:57:29.684Z,13.31
2018-09-08T04:59:53.543Z,13.10
2018-09-08T05:02:17.360Z,13.51
2018-09-08T05:04:41.184Z,13.82
2018-09-08T05:07:04.994Z,13.66
2018-09-08T05:09:28.955Z,13.75
2018-09-08T05:11:52.816Z,13.45
2018-09-08T05:14:16.649Z,13.57
2018-09-08T05:16:40.592Z,13.66
2018-09-08T05:19:04.464Z,13.78
2018-09-08T05:21:28.377Z,13.91
2018-09-08T05:23:52.266Z,13.77
2018-09-08T05:26:16.068Z,13.76
2018-09-08T05:28:39.999Z,13.49
2018-09-08T05:31:03.827Z,13.46
2018-09-08T05:33:27.791Z,13.41
2018-09-08T05:35:51.624Z,13.71
2018-09-08T05:38:15.472Z,13.46
2018-09-08T05:40:39.635Z,13.53
2018-09-08T05:43:03.561Z,13.75
2018-09-08T05:45:27.411Z,13.44
2018-09-08T05:47:51.231Z,13.62
2018-09-08T05:50:15.067Z,13.81
2018-09-08T05:52:38.931Z,13.53
2018-09-08T05:55:02.856Z,13.51
2018-09-08T05:57:27.344Z,13.83
2018-09-08T05:59:51.167Z,13.85
2018-09-08T06:02:15.067Z,13.89
2018-09-08T06:04:38.925Z,13.95
2018-09-08T06:07:03.820Z,13.99
2018-09-08T06:09:27.680Z,13.79
2018-09-08T06:11:51.502Z,13.77
2018-09-08T06:14:15.429Z,14.02
2018-09-08T06:16:39.279Z,13.92
2018-09-08T06:19:03.164Z,14.21
2018-09-08T06:21:27.110Z,14.32
2018-09-08T06:23:50.955Z,14.32
2018-09-08T06:26:14.768Z,14.17
2018-09-08T06:28:38.797Z,13.99
2018-09-08T06:31:02.499Z,14.07
2018-09-08T06:33:26.439Z,14.07
2018-09-08T06:35:50.337Z,14.02
2018-09-08T06:38:14.208Z,14.48
2018-09-08T06:40:38.085Z,14.11
2018-09-08T06:43:01.917Z,14.40
2018-09-08T06:45:25.865Z,14.38
2018-09-08T06:47:49.762Z,14.48
2018-09-08T06:50:13.573Z,14.49
2018-09-08T06:52:37.438Z,14.51
2018-09-08T06:55:01.282Z,14.80
2018-09-08T06:57:25.206Z,14.79
2018-09-08T06:59:49.191Z,14.67
2018-09-08T07:02:13.151Z,14.71
2018-09-08T07:04:36.979Z,14.89
2018-09-08T07:07:00.852Z,14.94
2018-09-08T07:09:24.739Z,15.18
2018-09-08T07:11:48.606Z,14.87
2018-09-08T07:14:12.603Z,15.03
2018-09-08T07:16:36.427Z,15.17
2018-09-08T07:19:00.303Z,15.14
2018-09-08T07:21:24.207Z,15.32
2018-09-08T07:23:48.029Z,15.32
2018-09-08T07:26:11.902Z,15.37
2018-09-08T07:28:35.738Z,15.66
2018-09-08T07:30:59.731Z,15.49
2018-09-08T07:33:23.555Z,15.52
2018-09-08T07:35:47.383Z,15.65
2018-09-08T07:38:11.274Z,15.72
2018-09-08T07:40:35.152Z,15.73
2018-09-08T07:42:59.202Z,16.02
2018-09-08T07:45:23.052Z,15.98
2018-09-08T07:47:46.909Z,16.22
2018-09-08T07:50:10.785Z,16.17
2018-09-08T07:52:34.689Z,16.23
2018-09-08T07:54:58.660Z,16.30
2018-09-08T07:57:22.548Z,16.20
2018-09-08T07:59:46.358Z,16.34
2018-09-08T08:02:10.453Z,16.52
2018-09-08T08:04:34.287Z,16.58
2018-09-08T08:07:01.346Z,16.36
2018-09-08T08:09:25.260Z,16.43
2018-09-08T08:11:49.081Z,16.47
2018-09-08T08:14:13.043Z,16.84
2018-09-08T08:16:36.906Z,16.71
2018-09-08T08:19:00.770Z,17.24
2018-09-08T08:21:26.019Z,17.02
2018-09-08T08:23:49.862Z,16.80
2018-09-08T08:26:13.838Z,17.23
2018-09-08T08:31:08.350Z,17.21
2018-09-08T08:33:32.140Z,17.23
2018-09-08T08:35:56.033Z,17.20
2018-09-08T08:38:20.035Z,17.34
2018-09-08T08:40:43.860Z,17.21
2018-09-08T08:43:07.774Z,17.51
2018-09-08T08:45:31.575Z,18.00
2018-09-08T08:47:55.440Z,18.01
2018-09-08T08:50:30.631Z,17.86
2018-09-08T08:53:05.854Z,18.05
2018-09-08T08:55:29.685Z,18.13
2018-09-08T08:57:53.511Z,18.02
2018-09-08T09:00:17.445Z,18.21
2018-09-08T09:02:41.303Z,18.25
2018-09-08T09:05:05.187Z,18.63
2018-09-08T09:07:29.046Z,18.49
2018-09-08T09:09:52.958Z,18.81
2018-09-08T09:12:16.925Z,19.14
2018-09-08T09:14:41.204Z,19.05
2018-09-08T09:17:04.703Z,19.20
2018-09-08T09:19:41.731Z,18.68
2018-09-08T09:22:20.416Z,18.57
2018-09-08T09:24:50.914Z,19.04
2018-09-08T09:27:14.342Z,18.96
2018-09-08T09:29:38.233Z,19.15
2018-09-08T09:32:02.085Z,19.21
2018-09-08T09:34:25.905Z,19.20
2018-09-08T09:36:49.795Z,19.19
2018-09-08T09:39:13.659Z,19.66
2018-09-08T09:41:37.509Z,19.80
2018-09-08T09:44:01.862Z,19.81
2018-09-08T09:46:25.733Z,19.90
2018-09-08T09:48:49.644Z,19.48
2018-09-08T09:51:13.471Z,18.89
2018-09-08T09:53:37.293Z,19.48
2018-09-08T09:56:01.345Z,19.43
2018-09-08T09:58:25.191Z,19.67
2018-09-08T10:00:54.493Z,20.14
2018-09-08T10:03:18.307Z,20.36
2018-09-08T10:05:42.180Z,20.44
2018-09-08T10:08:06.048Z,20.87
2018-09-08T10:10:30.235Z,20.70
2018-09-08T10:12:54.083Z,21.01
2018-09-08T10:15:17.920Z,20.72
2018-09-08T10:17:42.671Z,20.46
2018-09-08T10:20:09.181Z,20.96
2018-09-08T10:22:33.128Z,21.31
2018-09-08T10:24:57.087Z,20.85
2018-09-08T10:27:21.221Z,20.91
2018-09-08T10:29:45.133Z,20.56
2018-09-08T10:32:09.399Z,20.70
2018-09-08T10:34:32.839Z,20.41
2018-09-08T10:36:56.698Z,20.89
2018-09-08T10:39:20.559Z,20.77
2018-09-08T10:41:44.507Z,20.77
2018-09-08T10:44:08.359Z,21.19
2018-09-08T10:46:32.290Z,21.36
2018-09-08T10:48:56.167Z,21.15
2018-09-08T10:51:59.833Z,21.72
2018-09-08T10:54:23.744Z,22.08
2018-09-08T10:56:47.603Z,22.89
2018-09-08T10:59:11.466Z,22.44
2018-09-08T11:01:35.452Z,22.14
2018-09-08T11:03:59.418Z,21.45
2018-09-08T11:06:23.350Z,21.80
2018-09-08T11:08:47.170Z,21.67
2018-09-08T11:11:11.094Z,21.99
2018-09-08T11:13:34.964Z,21.95
2018-09-08T11:15:58.788Z,22.29
2018-09-08T11:18:22.751Z,22.31
2018-09-08T11:20:46.616Z,22.59
2018-09-08T11:23:10.515Z,22.46
2018-09-08T11:25:34.380Z,23.06
2018-09-08T11:27:58.376Z,22.69
2018-09-08T11:30:22.236Z,22.53
2018-09-08T11:32:46.084Z,22.70
2018-09-08T11:35:09.955Z,22.13
2018-09-08T11:37:33.893Z,22.24
2018-09-08T11:39:57.765Z,22.66
2018-09-08T11:42:21.719Z,23.09
2018-09-08T11:44:45.823Z,23.38
2018-09-08T11:47:09.893Z,23.04
2018-09-08T11:49:33.913Z,23.16
2018-09-08T11:51:57.760Z,22.65
2018-09-08T11:54:21.584Z,22.06
2018-09-08T11:56:45.545Z,22.34
2018-09-08T11:59:09.423Z,22.25
2018-09-08T12:01:33.278Z,22.31
2018-09-08T12:03:57.215Z,22.48
2018-09-08T12:06:21.107Z,22.00
2018-09-08T12:08:45.023Z,22.08
2018-09-08T12:11:09.084Z,22.81
2018-09-08T12:13:32.964Z,22.60
2018-09-08T12:15:56.895Z,22.88
2018-09-08T12:18:21.735Z,22.45
2018-09-08T12:20:45.564Z,22.68
2018-09-08T12:23:09.660Z,22.60
2018-09-08T12:25:33.546Z,22.40
2018-09-08T12:27:57.542Z,22.19
2018-09-08T12:30:21.395Z,21.81
2018-09-08T12:32:45.421Z,22.02
2018-09-08T12:35:09.404Z,23.11
2018-09-08T12:37:33.234Z,22.20
2018-09-08T12:39:57.081Z,22.56
2018-09-08T12:42:20.982Z,22.52
2018-09-08T12:44:44.855Z,22.29
2018-09-08T12:47:08.820Z,22.80
2018-09-08T12:49:32.680Z,23.18
2018-09-08T12:51:56.621Z,23.06
2018-09-08T12:54:20.470Z,22.56
2018-09-08T12:56:44.440Z,22.33
2018-09-08T12:59:08.345Z,22.17
2018-09-08T13:01:32.180Z,23.96
2018-09-08T13:03:56.449Z,23.84
2018-09-08T13:06:20.337Z,23.65
2018-09-08T13:08:44.205Z,23.52
2018-09-08T13:11:08.091Z,24.22
2018-09-08T13:13:31.926Z,24.38
2018-09-08T13:15:55.757Z,24.98
2018-09-08T13:18:19.597Z,26.54
2018-09-08T13:20:43.567Z,25.56
2018-09-08T13:23:07.422Z,26.30
2018-09-08T13:25:31.265Z,27.53
2018-09-08T13:27:55.138Z,26.79
2018-09-08T13:30:18.947Z,25.25
2018-09-08T13:32:42.833Z,25.65
2018-09-08T13:35:06.702Z,25.20
2018-09-08T13:37:30.556Z,25.30
2018-09-08T13:39:54.797Z,25.02
2018-09-08T13:42:18.566Z,23.72
2018-09-08T13:44:42.419Z,23.58
2018-09-08T13:47:06.394Z,23.88
2018-09-08T13:49:30.176Z,23.18
2018-09-08T13:51:54.169Z,24.14
2018-09-08T13:54:18.174Z,24.12
2018-09-08T13:56:42.025Z,24.43
2018-09-08T13:59:05.878Z,24.39
2018-09-08T14:01:29.742Z,24.82
2018-09-08T14:03:53.729Z,24.94
2018-09-08T14:06:17.551Z,24.74
2018-09-08T14:08:41.428Z,24.55
2018-09-08T14:11:05.445Z,24.26
2018-09-08T14:13:29.288Z,24.17
2018-09-08T14:15:53.276Z,23.87
2018-09-08T14:18:17.161Z,23.93
2018-09-08T14:20:41.122Z,22.62
2018-09-08T14:23:05.120Z,23.09
2018-09-08T14:25:28.967Z,23.53
2018-09-08T14:27:52.952Z,25.02
2018-09-08T14:30:16.816Z,23.94
2018-09-08T14:32:40.667Z,22.87
2018-09-08T14:35:04.567Z,23.32
2018-09-08T14:37:28.427Z,22.98
2018-09-08T14:39:52.420Z,23.35
2018-09-08T14:42:16.265Z,23.97
2018-09-08T14:44:40.127Z,23.51
2018-09-08T14:47:04.065Z,23.91
2018-09-08T14:49:27.937Z,23.23
2018-09-08T14:51:51.801Z,23.28
2018-09-08T14:54:15.753Z,23.57
2018-09-08T14:56:39.617Z,23.30
2018-09-08T14:59:03.660Z,23.87
2018-09-08T15:01:27.512Z,23.10
2018-09-08T15:03:51.376Z,23.18
2018-09-08T15:06:15.434Z,23.33
2018-09-08T15:08:39.275Z,23.74
2018-09-08T15:11:03.209Z,23.96
2018-09-08T15:13:27.428Z,24.07
2018-09-08T15:15:51.454Z,24.03
2018-09-08T15:18:15.459Z,23.92
2018-09-08T15:20:39.304Z,23.31
2018-09-08T15:23:03.179Z,23.42
2018-09-08T15:25:27.138Z,23.82
2018-09-08T15:27:51.213Z,23.05
2018-09-08T15:30:15.107Z,23.11
2018-09-08T15:32:38.932Z,23.13
2018-09-08T15:35:02.816Z,23.15
2018-09-08T15:37:26.727Z,23.07
2018-09-08T15:39:50.570Z,23.72
2018-09-08T15:42:14.568Z,24.07
2018-09-08T15:44:38.344Z,24.01
2018-09-08T15:47:02.338Z,23.43
2018-09-08T15:49:26.217Z,23.45
2018-09-08T15:51:50.292Z,23.10
2018-09-08T15:54:14.491Z,23.79
2018-09-08T15:56:38.447Z,23.44
2018-09-08T15:59:02.317Z,23.12
2018-09-08T16:01:26.211Z,23.73
2018-09-08T16:03:50.053Z,23.59
2018-09-08T16:06:13.950Z,23.86
2018-09-08T16:08:37.790Z,24.30
2018-09-08T16:11:01.664Z,23.50
2018-09-08T16:13:25.663Z,23.95
2018-09-08T16:15:50.393Z,23.46
2018-09-08T16:18:14.281Z,23.51
2018-09-08T16:20:38.117Z,23.16
2018-09-08T16:23:02.028Z,23.33
2018-09-08T16:25:25.882Z,23.06
2018-09-08T16:27:49.753Z,22.94
2018-09-08T16:30:13.670Z,23.63
2018-09-08T16:32:37.528Z,23.96
2018-09-08T16:35:01.411Z,23.64
2018-09-08T16:37:25.412Z,23.42
2018-09-08T16:39:49.241Z,23.07
2018-09-08T16:42:13.223Z,22.77
2018-09-08T16:44:37.062Z,22.89
2018-09-08T16:47:00.915Z,22.89
2018-09-08T16:49:24.837Z,22.65
2018-09-08T16:51:48.700Z,23.06
2018-09-08T16:54:12.556Z,22.95
2018-09-08T16:56:36.460Z,22.75
2018-09-08T16:59:00.466Z,23.20
2018-09-08T17:01:24.654Z,23.28
2018-09-08T17:03:48.567Z,23.42
2018-09-08T17:06:12.388Z,23.38
2018-09-08T17:08:36.290Z,23.26
2018-09-08T17:11:00.285Z,23.55
2018-09-08T17:13:24.184Z,23.57
2018-09-08T17:15:48.276Z,23.52
2018-09-08T17:18:12.113Z,23.46
2018-09-08T17:20:36.099Z,23.41
2018-09-08T17:23:00.010Z,23.56
2018-09-08T17:25:24.053Z,23.64
2018-09-08T17:27:47.884Z,23.61
2018-09-08T17:30:11.727Z,23.49
2018-09-08T17:32:35.620Z,23.47
2018-09-08T17:34:59.465Z,23.39
2018-09-08T17:37:23.352Z,23.32
2018-09-08T17:39:48.275Z,23.23
2018-09-08T17:42:12.966Z,23.24
2018-09-08T17:44:36.870Z,23.13
2018-09-08T17:47:00.748Z,23.15
2018-09-08T17:49:24.698Z,23.15
2018-09-08T17:51:48.610Z,23.06
2018-09-08T17:54:12.462Z,22.99
2018-09-08T17:56:36.324Z,22.96
2018-09-08T17:59:00.251Z,22.98
2018-09-08T18:01:24.052Z,23.01
2018-09-08T18:03:54.995Z,23.00
2018-09-08T18:06:19.116Z,22.87
2018-09-08T18:08:43.031Z,22.67
2018-09-08T18:11:07.487Z,22.88
2018-09-08T18:13:31.359Z,22.73
2018-09-08T18:15:55.247Z,22.81
2018-09-08T18:18:19.178Z,22.75
2018-09-08T18:20:43.232Z,22.68
2018-09-08T18:23:07.164Z,22.66
2018-09-08T18:25:31.000Z,22.67
2018-09-08T18:27:54.890Z,22.53
2018-09-08T18:30:18.748Z,22.57
2018-09-08T18:32:42.684Z,22.62
2018-09-08T18:35:07.030Z,22.61
2018-09-08T18:37:30.878Z,22.34
2018-09-08T18:39:54.854Z,22.38
2018-09-08T18:42:19.077Z,22.42
2018-09-08T18:44:43.001Z,22.44
2018-09-08T18:47:06.943Z,22.35
2018-09-08T18:49:30.854Z,22.25
2018-09-08T18:51:54.793Z,22.27
2018-09-08T18:54:18.663Z,22.22
2018-09-08T18:56:42.568Z,22.19
2018-09-08T18:59:06.534Z,22.04
2018-09-08T19:01:30.418Z,22.04
2018-09-08T19:03:54.597Z,22.06
2018-09-08T19:06:18.526Z,21.96
2018-09-08T19:08:43.118Z,22.03
2018-09-08T19:11:07.182Z,22.03
2018-09-08T19:13:31.064Z,21.81
2018-09-08T19:15:54.978Z,21.90
2018-09-08T19:18:18.951Z,21.89
2018-09-08T19:20:42.845Z,21.96
2018-09-08T19:23:07.272Z,21.89
2018-09-08T19:25:31.171Z,21.93
2018-09-08T19:30:17.857Z,21.74
2018-09-08T19:32:41.746Z,21.79
2018-09-08T19:35:11.032Z,21.77
2018-09-08T19:37:36.118Z,21.67
2018-09-08T19:40:00.518Z,21.68
2018-09-08T19:42:27.277Z,21.73
2018-09-08T19:44:51.804Z,21.52
2018-09-08T19:47:21.028Z,21.39
2018-09-08T19:49:45.097Z,21.45
2018-09-08T19:52:13.445Z,21.51
2018-09-08T19:54:37.441Z,21.61
2018-09-08T19:57:06.934Z,21.50
2018-09-08T19:59:30.849Z,21.40
2018-09-08T20:01:54.889Z,21.53
2018-09-08T20:04:19.123Z,21.69
2018-09-08T20:06:43.213Z,21.55
2018-09-08T20:09:07.173Z,21.36
2018-09-08T20:11:31.083Z,21.50
2018-09-08T20:13:55.006Z,21.36
2018-09-08T20:16:18.910Z,21.35
2018-09-08T20:18:42.803Z,21.33
2018-09-08T20:21:06.866Z,21.19
2018-09-08T20:23:30.773Z,21.19
2018-09-08T20:25:54.770Z,21.33
2018-09-08T20:28:18.652Z,21.25
2018-09-08T20:30:43.135Z,21.18
2018-09-08T20:33:07.024Z,21.18
2018-09-08T20:35:30.897Z,21.16
2018-09-08T20:37:54.805Z,21.13
2018-09-08T20:40:18.836Z,21.08
2018-09-08T20:42:42.704Z,21.02
2018-09-08T20:45:06.977Z,21.17
2018-09-08T20:47:30.876Z,21.14
2018-09-08T20:49:54.834Z,21.16
2018-09-08T20:52:18.718Z,21.24
2018-09-08T20:54:42.601Z,21.08
2018-09-08T20:57:06.499Z,21.07
2018-09-08T20:59:30.386Z,21.00
2018-09-08T21:01:54.269Z,20.99
2018-09-08T21:04:19.325Z,20.98
2018-09-08T21:06:43.295Z,21.07
2018-09-08T21:09:07.147Z,21.04
2018-09-08T21:11:31.031Z,20.84
2018-09-08T21:13:54.921Z,20.77
2018-09-08T21:16:18.896Z,20.91
2018-09-08T21:18:42.723Z,20.75
2018-09-08T21:21:06.781Z,20.92
2018-09-08T21:23:30.699Z,20.78
2018-09-08T21:25:54.544Z,20.71
2018-09-08T21:28:18.381Z,20.91
2018-09-08T21:30:42.235Z,20.84
2018-09-08T21:33:06.117Z,20.76
2018-09-08T21:35:29.972Z,20.63
2018-09-08T21:37:53.848Z,20.63
2018-09-08T21:40:19.228Z,20.74
2018-09-08T21:42:43.058Z,20.84
2018-09-08T21:45:06.922Z,20.67
2018-09-08T21:47:30.803Z,20.68
2018-09-08T21:49:54.700Z,20.39
2018-09-08T21:52:18.654Z,20.32
2018-09-08T21:54:42.485Z,20.51
2018-09-08T21:57:06.330Z,20.61
2018-09-08T21:59:30.196Z,20.64
2018-09-08T22:01:54.036Z,20.58
2018-09-08T22:04:18.007Z,20.50
2018-09-08T22:06:41.891Z,20.38
2018-09-08T22:09:08.296Z,20.44
2018-09-08T22:11:32.189Z,20.38
2018-09-08T22:13:56.014Z,20.43
2018-09-08T22:16:19.864Z,20.36
2018-09-08T22:18:43.790Z,20.28
2018-09-08T22:21:07.658Z,20.38
2018-09-08T22:23:31.472Z,20.43
2018-09-08T22:25:55.571Z,20.42
2018-09-08T22:28:19.442Z,20.35
2018-09-08T22:30:43.505Z,20.47
2018-09-08T22:33:07.401Z,20.53
2018-09-08T22:35:31.210Z,20.58
2018-09-08T22:37:55.215Z,20.53
2018-09-08T22:40:19.102Z,20.48
2018-09-08T22:42:42.963Z,20.55
2018-09-08T22:45:06.821Z,20.45
2018-09-08T22:47:30.672Z,20.49
2018-09-08T22:49:54.620Z,20.27
2018-09-08T22:52:18.456Z,20.28
2018-09-08T22:54:42.299Z,20.39
2018-09-08T22:57:06.224Z,20.29
2018-09-08T22:59:30.084Z,20.09
2018-09-08T23:01:53.991Z,20.08
2018-09-08T23:04:17.840Z,20.20
2018-09-08T23:06:41.687Z,20.12
2018-09-08T23:09:06.686Z,20.22
2018-09-08T23:11:30.520Z,20.22
2018-09-08T23:13:54.422Z,20.22
2018-09-08T23:16:18.261Z,20.32
2018-09-08T23:18:42.107Z,20.32
2018-09-08T23:21:06.166Z,20.14
2018-09-08T23:23:29.988Z,20.12
2018-09-08T23:25:54.933Z,20.24
2018-09-08T23:28:18.779Z,20.23
2018-09-08T23:30:42.657Z,20.26
2018-09-08T23:33:06.548Z,20.37
2018-09-08T23:35:30.371Z,20.28
2018-09-08T23:37:54.246Z,20.34
2018-09-08T23:40:18.094Z,20.23
2018-09-08T23:42:41.946Z,20.25
2018-09-08T23:45:05.828Z,20.29
2018-09-08T23:47:29.621Z,20.16
2018-09-08T23:49:53.679Z,20.14
2018-09-08T23:52:17.499Z,20.18
2018-09-08T23:54:41.339Z,20.14
2018-09-08T23:57:05.479Z,19.89
2018-09-08T23:59:29.639Z,19.99
